createdAt,value
2022-10-04T00:00:39.265Z,11.51
2022-10-04T00:03:22.863Z,11.62
2022-10-04T00:05:53.833Z,11.64
2022-10-04T00:08:41.292Z,10.79
2022-10-04T00:11:17.117Z,11.20
2022-10-04T00:13:50.562Z,11.11
2022-10-04T00:16:49.490Z,11.49
2022-10-04T00:19:16.059Z,11.56
2022-10-04T00:21:52.370Z,11.43
2022-10-04T00:24:31.146Z,11.44
2022-10-04T00:27:30.228Z,11.47
2022-10-04T00:30:02.582Z,11.48
2022-10-04T00:33:06.815Z,11.44
2022-10-04T00:35:33.407Z,11.38
2022-10-04T00:38:17.694Z,11.44
2022-10-04T00:41:01.974Z,11.50
2022-10-04T00:43:47.327Z,11.47
2022-10-04T00:46:23.828Z,11.48
2022-10-04T00:48:55.308Z,11.24
2022-10-04T00:51:44.343Z,11.40
2022-10-04T00:54:10.888Z,11.34
2022-10-04T00:56:46.494Z,11.31
2022-10-04T00:59:33.788Z,11.21
2022-10-04T01:02:18.921Z,11.26
2022-10-04T01:05:09.286Z,11.28
2022-10-04T01:07:40.740Z,11.13
2022-10-04T01:10:31.417Z,11.09
2022-10-04T01:13:07.397Z,11.15
2022-10-04T01:16:16.196Z,11.00
2022-10-04T01:18:43.509Z,11.00
2022-10-04T01:21:22.197Z,11.02
2022-10-04T01:23:52.960Z,10.59
2022-10-04T01:26:34.820Z,10.12
2022-10-04T01:29:28.347Z,10.14
2022-10-04T01:31:57.920Z,10.24
2022-10-04T01:34:27.851Z,10.20
2022-10-04T01:36:59.798Z,10.27
2022-10-04T01:39:28.366Z,10.16
2022-10-04T01:42:09.454Z,9.91
2022-10-04T01:45:08.340Z,10.20
2022-10-04T01:47:41.058Z,10.19
2022-10-04T01:50:20.486Z,10.24
2022-10-04T01:53:28.656Z,10.16
2022-10-04T01:56:06.686Z,9.86
2022-10-04T01:58:58.604Z,9.91
2022-10-04T02:01:58.740Z,10.18
2022-10-04T02:04:32.258Z,10.22
2022-10-04T02:07:01.840Z,10.09
2022-10-04T02:09:41.099Z,10.10
2022-10-04T02:12:07.992Z,9.87
2022-10-04T02:14:36.145Z,9.93
2022-10-04T02:17:10.678Z,10.02
2022-10-04T02:19:43.186Z,9.99
2022-10-04T02:22:11.668Z,9.49
2022-10-04T02:24:43.017Z,9.73
2022-10-04T02:27:09.737Z,9.39
2022-10-04T02:29:36.420Z,9.24
2022-10-04T02:32:23.906Z,9.32
2022-10-04T02:34:51.280Z,9.27
2022-10-04T02:37:26.744Z,8.91
2022-10-04T02:40:00.657Z,9.54
2022-10-04T02:42:55.493Z,9.56
2022-10-04T02:45:33.410Z,9.52
2022-10-04T02:48:17.130Z,9.40
2022-10-04T02:50:49.602Z,9.46
2022-10-04T02:53:26.603Z,8.76
2022-10-04T02:55:55.514Z,9.10
2022-10-04T02:58:24.614Z,8.94
2022-10-04T03:01:00.932Z,9.16
2022-10-04T03:03:35.154Z,9.23
2022-10-04T03:06:08.756Z,9.26
2022-10-04T03:08:59.117Z,9.08
2022-10-04T03:11:31.074Z,9.04
2022-10-04T03:14:01.132Z,8.95
2022-10-04T03:16:34.230Z,8.56
2022-10-04T03:19:01.081Z,8.91
2022-10-04T03:21:27.864Z,8.09
2022-10-04T03:23:54.886Z,8.37
2022-10-04T03:26:38.837Z,8.66
2022-10-04T03:29:10.417Z,8.72
2022-10-04T03:31:49.634Z,8.71
2022-10-04T03:34:20.917Z,8.17
2022-10-04T03:36:49.916Z,8.87
2022-10-04T03:39:45.585Z,8.95
2022-10-04T03:42:15.095Z,8.79
2022-10-04T03:44:43.254Z,8.72
2022-10-04T03:47:13.024Z,8.56
2022-10-04T03:49:41.517Z,8.61
2022-10-04T03:52:16.945Z,8.64
2022-10-04T03:54:44.002Z,8.49
2022-10-04T03:57:12.411Z,8.55
2022-10-04T03:59:39.885Z,8.23
2022-10-04T04:02:16.276Z,8.64
2022-10-04T04:04:50.578Z,8.70
2022-10-04T04:07:35.241Z,8.67
2022-10-04T04:10:16.760Z,8.74
2022-10-04T04:12:53.298Z,8.76
2022-10-04T04:15:20.135Z,6.96
2022-10-04T04:17:50.972Z,8.46
2022-10-04T04:20:23.704Z,8.63
2022-10-04T04:23:24.451Z,8.97
2022-10-04T04:25:57.268Z,8.16
2022-10-04T04:28:31.136Z,9.14
2022-10-04T04:31:04.239Z,8.79
2022-10-04T04:33:37.561Z,9.14
2022-10-04T04:36:12.359Z,9.23
2022-10-04T04:38:57.759Z,9.28
2022-10-04T04:41:26.964Z,9.30
2022-10-04T04:43:53.739Z,8.98
2022-10-04T04:46:27.625Z,9.34
2022-10-04T04:49:02.641Z,9.30
2022-10-04T04:51:32.169Z,9.33
2022-10-04T04:54:02.286Z,8.79
2022-10-04T04:56:30.594Z,9.53
2022-10-04T04:59:02.336Z,9.66
2022-10-04T05:01:34.584Z,9.83
2022-10-04T05:04:12.525Z,9.90
2022-10-04T05:06:41.985Z,9.88
2022-10-04T05:09:32.026Z,10.13
2022-10-04T05:12:20.197Z,10.20
2022-10-04T05:14:52.600Z,10.42
2022-10-04T05:17:23.264Z,10.59
2022-10-04T05:19:52.079Z,10.72
2022-10-04T05:22:23.176Z,10.35
2022-10-04T05:24:56.385Z,10.59
2022-10-04T05:27:45.526Z,10.98
2022-10-04T05:30:23.622Z,10.62
2022-10-04T05:33:08.469Z,11.24
2022-10-04T05:36:18.932Z,11.32
2022-10-04T05:38:57.738Z,11.51
2022-10-04T05:41:45.047Z,11.49
2022-10-04T05:44:43.139Z,11.75
2022-10-04T05:47:14.401Z,11.44
2022-10-04T05:49:44.335Z,11.73
2022-10-04T05:52:27.864Z,12.19
2022-10-04T05:55:13.048Z,12.43
2022-10-04T05:57:58.074Z,12.44
2022-10-04T06:00:47.547Z,12.57
2022-10-04T06:03:48.121Z,13.07
2022-10-04T06:06:45.713Z,13.19
2022-10-04T06:09:41.604Z,13.43
2022-10-04T06:12:08.165Z,13.37
2022-10-04T06:14:58.482Z,13.41
2022-10-04T06:17:34.039Z,13.36
2022-10-04T06:20:19.448Z,13.36
2022-10-04T06:22:48.373Z,13.79
2022-10-04T06:25:27.571Z,14.08
2022-10-04T06:28:17.560Z,14.40
2022-10-04T06:31:09.195Z,14.73
2022-10-04T06:33:38.573Z,14.91
2022-10-04T06:36:27.971Z,14.90
2022-10-04T06:39:17.255Z,15.05
2022-10-04T06:42:02.275Z,15.13
2022-10-04T06:44:41.398Z,15.50
2022-10-04T06:47:38.232Z,15.77
2022-10-04T06:50:33.839Z,16.00
2022-10-04T06:53:24.630Z,16.25
2022-10-04T06:56:09.552Z,16.42
2022-10-04T06:58:44.989Z,16.63
2022-10-04T07:01:26.747Z,16.84
2022-10-04T07:04:06.254Z,17.27
2022-10-04T07:07:27.110Z,17.29
2022-10-04T07:10:01.502Z,16.45
2022-10-04T07:12:29.656Z,16.99
2022-10-04T07:15:01.076Z,17.52
2022-10-04T07:17:38.685Z,17.58
2022-10-04T07:20:14.543Z,18.18
2022-10-04T07:22:51.586Z,17.43
2022-10-04T07:25:24.352Z,18.14
2022-10-04T07:28:13.638Z,17.68
2022-10-04T07:30:48.574Z,17.50
2022-10-04T07:33:20.349Z,17.09
2022-10-04T07:35:51.987Z,17.27
2022-10-04T07:38:26.316Z,17.59
2022-10-04T07:40:58.741Z,17.48
2022-10-04T07:43:30.552Z,16.72
2022-10-04T07:46:14.258Z,17.37
2022-10-04T07:48:41.597Z,17.63
2022-10-04T07:51:41.647Z,17.67
2022-10-04T07:54:16.292Z,17.65
2022-10-04T07:56:56.399Z,17.65
2022-10-04T07:59:48.524Z,17.69
2022-10-04T08:02:27.755Z,17.80
2022-10-04T08:05:13.023Z,17.81
2022-10-04T08:08:05.886Z,17.50
2022-10-04T08:11:06.617Z,17.56
2022-10-04T08:14:08.486Z,17.21
2022-10-04T08:16:48.297Z,17.51
2022-10-04T08:20:12.086Z,17.21
2022-10-04T08:22:41.619Z,16.98
2022-10-04T08:25:38.806Z,16.21
2022-10-04T08:28:38.681Z,15.81
2022-10-04T08:31:24.864Z,16.04
2022-10-04T08:33:57.469Z,16.22
2022-10-04T08:36:53.309Z,16.83
2022-10-04T08:39:29.459Z,16.52
2022-10-04T08:42:04.946Z,16.26
2022-10-04T08:45:03.113Z,15.43
2022-10-04T08:48:24.784Z,16.25
2022-10-04T08:51:25.253Z,16.49
2022-10-04T08:54:03.999Z,16.65
2022-10-04T08:56:51.978Z,16.98
2022-10-04T08:59:19.019Z,17.30
2022-10-04T09:02:19.797Z,17.72
2022-10-04T09:05:08.217Z,17.61
2022-10-04T09:08:16.275Z,17.19
2022-10-04T09:11:05.699Z,17.60
2022-10-04T09:14:09.546Z,17.41
2022-10-04T09:16:48.622Z,17.92
2022-10-04T09:19:21.785Z,17.55
2022-10-04T09:21:57.526Z,17.97
2022-10-04T09:24:52.554Z,18.32
2022-10-04T09:27:55.058Z,18.64
2022-10-04T09:30:31.123Z,18.44
2022-10-04T09:33:16.458Z,18.24
2022-10-04T09:36:16.284Z,17.89
2022-10-04T09:39:25.573Z,17.91
2022-10-04T09:42:16.468Z,17.42
2022-10-04T09:44:57.947Z,16.69
2022-10-04T09:47:51.776Z,17.70
2022-10-04T09:50:52.545Z,17.85
2022-10-04T09:53:20.366Z,17.90
2022-10-04T09:56:15.008Z,17.51
2022-10-04T09:59:09.106Z,17.14
2022-10-04T10:01:41.189Z,17.70
2022-10-04T10:04:23.064Z,17.58
2022-10-04T10:07:04.863Z,17.35
2022-10-04T10:09:59.419Z,18.04
2022-10-04T10:12:54.134Z,18.04
2022-10-04T10:16:19.283Z,17.76
2022-10-04T10:19:11.425Z,17.94
2022-10-04T10:21:49.763Z,18.55
2022-10-04T10:24:35.139Z,18.79
2022-10-04T10:27:14.029Z,18.23
2022-10-04T10:30:04.335Z,17.59
2022-10-04T10:32:43.090Z,17.79
2022-10-04T10:35:43.773Z,17.59
2022-10-04T10:38:32.283Z,18.24
2022-10-04T10:41:27.573Z,18.50
2022-10-04T10:44:09.921Z,18.76
2022-10-04T10:47:12.388Z,19.16
2022-10-04T10:49:53.339Z,19.55
2022-10-04T10:52:28.900Z,19.86
2022-10-04T10:55:14.345Z,19.36
2022-10-04T10:58:16.503Z,19.11
2022-10-04T11:01:28.396Z,19.68
2022-10-04T11:04:19.423Z,19.65
2022-10-04T11:07:14.070Z,19.52
2022-10-04T11:10:17.966Z,19.49
2022-10-04T11:13:09.308Z,19.36
2022-10-04T11:16:14.166Z,19.20
2022-10-04T11:19:10.909Z,19.26
2022-10-04T11:22:07.524Z,19.80
2022-10-04T11:25:11.686Z,20.56
2022-10-04T11:28:13.856Z,19.38
2022-10-04T11:31:07.204Z,20.93
2022-10-04T11:33:54.319Z,21.37
2022-10-04T11:36:40.257Z,21.54
2022-10-04T11:39:06.903Z,21.12
2022-10-04T11:41:47.733Z,21.02
2022-10-04T11:44:26.657Z,20.83
2022-10-04T11:47:09.012Z,20.28
2022-10-04T11:49:56.583Z,19.51
2022-10-04T11:52:54.241Z,18.78
2022-10-04T11:55:57.332Z,19.24
2022-10-04T11:58:42.575Z,19.87
2022-10-04T12:01:27.896Z,19.63
2022-10-04T12:04:07.270Z,20.27
2022-10-04T12:06:33.867Z,20.48
2022-10-04T12:09:37.689Z,20.94
2022-10-04T12:12:41.130Z,21.26
2022-10-04T12:15:08.523Z,21.38
2022-10-04T12:18:21.840Z,20.84
2022-10-04T12:20:54.448Z,21.02
2022-10-04T12:23:45.612Z,19.83
2022-10-04T12:26:45.842Z,18.49
2022-10-04T12:29:31.211Z,18.53
2022-10-04T12:32:10.829Z,18.17
2022-10-04T12:34:46.219Z,18.40
2022-10-04T12:37:13.819Z,18.06
2022-10-04T12:40:22.248Z,17.98
2022-10-04T12:43:23.705Z,17.55
2022-10-04T12:46:06.557Z,17.97
2022-10-04T12:48:55.601Z,17.34
2022-10-04T12:51:34.356Z,17.54
2022-10-04T12:54:22.374Z,17.45
2022-10-04T12:57:04.402Z,17.32
2022-10-04T12:59:30.937Z,17.20
2022-10-04T13:02:09.787Z,17.09
2022-10-04T13:04:36.366Z,17.22
2022-10-04T13:07:27.314Z,17.43
2022-10-04T13:12:55.289Z,17.80
2022-10-04T13:17:25.252Z,17.53
2022-10-04T13:18:43.756Z,18.30
2022-10-04T13:21:16.925Z,19.14
2022-10-04T13:24:18.584Z,19.46
2022-10-04T13:27:07.699Z,19.60
2022-10-04T13:29:44.932Z,19.47
2022-10-04T13:32:22.287Z,19.87
2022-10-04T13:35:03.932Z,19.83
2022-10-04T13:37:42.877Z,19.98
2022-10-04T13:40:37.612Z,20.11
2022-10-04T13:43:22.931Z,20.13
2022-10-04T13:45:59.390Z,19.86
2022-10-04T13:48:51.738Z,19.44
2022-10-04T13:51:18.262Z,19.09
2022-10-04T13:54:18.559Z,19.00
2022-10-04T13:57:00.211Z,19.13
2022-10-04T13:59:39.323Z,18.62
2022-10-04T14:02:50.946Z,18.84
2022-10-04T14:05:56.387Z,18.46
2022-10-04T14:08:56.009Z,18.74
2022-10-04T14:11:53.848Z,18.45
2022-10-04T14:15:12.196Z,18.48
2022-10-04T14:17:56.689Z,18.22
2022-10-04T14:20:41.985Z,18.54
2022-10-04T14:23:52.640Z,18.30
2022-10-04T14:26:51.229Z,18.10
2022-10-04T14:29:41.323Z,18.34
2022-10-04T14:32:30.978Z,18.63
2022-10-04T14:35:13.074Z,18.73
2022-10-04T14:37:50.063Z,18.45
2022-10-04T14:40:34.883Z,18.48
2022-10-04T14:43:19.843Z,18.64
2022-10-04T14:46:28.331Z,18.58
2022-10-04T14:49:32.336Z,18.61
2022-10-04T14:52:18.376Z,18.39
2022-10-04T14:54:52.484Z,18.28
2022-10-04T14:57:41.323Z,18.30
2022-10-04T15:00:18.920Z,18.20
2022-10-04T15:03:28.946Z,18.01
2022-10-04T15:06:10.962Z,17.96
2022-10-04T15:08:52.703Z,17.85
2022-10-04T15:12:25.454Z,17.77
2022-10-04T15:15:05.447Z,17.53
2022-10-04T15:17:38.307Z,17.54
2022-10-04T15:20:18.383Z,17.41
2022-10-04T15:23:07.976Z,17.17
2022-10-04T15:25:46.208Z,17.26
2022-10-04T15:28:24.991Z,17.15
2022-10-04T15:31:48.902Z,17.10
2022-10-04T15:34:24.240Z,16.95
2022-10-04T15:37:15.332Z,16.85
2022-10-04T15:40:18.708Z,16.82
2022-10-04T15:42:59.643Z,16.78
2022-10-04T15:45:50.656Z,16.51
2022-10-04T15:48:33.054Z,16.32
2022-10-04T15:51:23.093Z,16.32
2022-10-04T15:53:50.011Z,16.11
2022-10-04T15:56:36.005Z,16.03
2022-10-04T15:59:27.801Z,15.92
2022-10-04T16:02:39.383Z,15.42
2022-10-04T16:05:26.608Z,15.18
2022-10-04T16:08:02.343Z,15.32
2022-10-04T16:11:16.516Z,15.29
2022-10-04T16:13:52.242Z,15.14
2022-10-04T16:16:19.482Z,15.22
2022-10-04T16:19:20.094Z,15.14
2022-10-04T16:21:54.086Z,15.18
2022-10-04T16:24:20.656Z,15.08
2022-10-04T16:26:47.754Z,15.18
2022-10-04T16:30:21.800Z,14.64
2022-10-04T16:33:01.023Z,15.14
2022-10-04T16:35:37.535Z,15.15
2022-10-04T16:38:13.259Z,15.03
2022-10-04T16:40:51.808Z,14.99
2022-10-04T16:43:20.725Z,14.83
2022-10-04T16:45:53.550Z,14.64
2022-10-04T16:48:37.734Z,14.57
2022-10-04T16:51:16.490Z,14.43
2022-10-04T16:54:01.029Z,14.41
2022-10-04T16:56:31.827Z,14.22
2022-10-04T16:59:13.975Z,14.05
2022-10-04T17:02:38.101Z,14.10
2022-10-04T17:05:29.638Z,13.90
2022-10-04T17:08:17.495Z,13.73
2022-10-04T17:11:14.346Z,13.62
2022-10-04T17:14:04.020Z,13.41
2022-10-04T17:16:33.567Z,13.45
2022-10-04T17:19:43.527Z,13.40
2022-10-04T17:22:47.865Z,13.32
2022-10-04T17:25:21.056Z,13.08
2022-10-04T17:27:53.965Z,13.01
2022-10-04T17:30:23.264Z,13.01
2022-10-04T17:33:24.445Z,13.02
2022-10-04T17:36:09.146Z,13.03
2022-10-04T17:39:19.831Z,13.05
2022-10-04T17:42:08.697Z,13.07
2022-10-04T17:44:54.825Z,12.97
2022-10-04T17:47:54.018Z,12.48
2022-10-04T17:51:04.981Z,12.46
2022-10-04T17:53:54.899Z,12.58
2022-10-04T17:56:42.748Z,11.91
2022-10-04T17:59:19.342Z,12.18
2022-10-04T18:01:50.864Z,12.31
2022-10-04T18:04:26.463Z,12.40
2022-10-04T18:07:02.213Z,12.42
2022-10-04T18:09:50.773Z,12.39
2022-10-04T18:12:33.231Z,12.30
2022-10-04T18:15:18.559Z,11.82
2022-10-04T18:17:50.104Z,11.20
2022-10-04T18:20:38.794Z,11.26
2022-10-04T18:23:20.090Z,11.48
2022-10-04T18:25:47.720Z,11.43
2022-10-04T18:28:21.745Z,11.54
2022-10-04T18:30:49.112Z,11.65
2022-10-04T18:33:25.843Z,11.56
2022-10-04T18:36:21.049Z,11.81
2022-10-04T18:39:03.379Z,10.79
2022-10-04T18:41:49.415Z,11.64
2022-10-04T18:44:19.522Z,11.48
2022-10-04T18:46:51.292Z,11.41
2022-10-04T18:49:25.459Z,11.29
2022-10-04T18:52:13.239Z,10.62
2022-10-04T18:54:45.588Z,11.21
2022-10-04T18:57:15.945Z,10.96
2022-10-04T19:00:23.899Z,10.90
2022-10-04T19:03:15.324Z,10.85
2022-10-04T19:06:11.562Z,10.81
2022-10-04T19:09:01.462Z,10.79
2022-10-04T19:11:33.167Z,10.81
2022-10-04T19:14:11.242Z,10.84
2022-10-04T19:16:58.917Z,10.84
2022-10-04T19:19:39.547Z,10.98
2022-10-04T19:22:20.225Z,11.12
2022-10-04T19:25:04.320Z,11.14
2022-10-04T19:27:37.018Z,11.10
2022-10-04T19:30:18.879Z,10.79
2022-10-04T19:33:11.642Z,10.93
2022-10-04T19:35:41.216Z,11.16
2022-10-04T19:38:42.047Z,11.11
2022-10-04T19:41:19.038Z,11.20
2022-10-04T19:44:18.154Z,11.23
2022-10-04T19:47:08.620Z,11.26
2022-10-04T19:49:52.699Z,11.14
2022-10-04T19:52:23.191Z,11.19
2022-10-04T19:54:56.751Z,11.13
2022-10-04T19:57:35.788Z,10.73
2022-10-04T20:00:02.430Z,11.04
2022-10-04T20:02:29.311Z,10.66
2022-10-04T20:04:56.505Z,10.94
2022-10-04T20:07:28.158Z,10.93
2022-10-04T20:10:28.171Z,10.86
2022-10-04T20:13:21.443Z,10.73
2022-10-04T20:15:49.303Z,10.85
2022-10-04T20:18:31.787Z,10.20
2022-10-04T20:21:01.426Z,10.29
2022-10-04T20:23:40.344Z,10.37
2022-10-04T20:26:58.044Z,10.45
2022-10-04T20:29:37.306Z,10.40
2022-10-04T20:32:06.177Z,10.31
2022-10-04T20:34:38.837Z,10.46
2022-10-04T20:37:08.362Z,10.31
2022-10-04T20:39:41.132Z,10.33
2022-10-04T20:42:34.735Z,10.30
2022-10-04T20:45:10.617Z,10.36
2022-10-04T20:47:43.748Z,10.28
2022-10-04T20:50:11.861Z,10.33
2022-10-04T20:52:45.329Z,10.31
2022-10-04T20:55:28.231Z,10.29
2022-10-04T20:57:57.888Z,9.97
2022-10-04T21:00:26.643Z,9.89
2022-10-04T21:03:28.957Z,10.11
2022-10-04T21:06:08.302Z,10.02
2022-10-04T21:08:36.795Z,9.92
2022-10-04T21:11:06.346Z,9.85
2022-10-04T21:13:48.804Z,9.40
2022-10-04T21:16:37.249Z,9.58
2022-10-04T21:19:28.743Z,9.58
2022-10-04T21:21:56.239Z,9.56
2022-10-04T21:24:43.242Z,9.57
2022-10-04T21:27:12.139Z,9.54
2022-10-04T21:29:39.602Z,9.44
2022-10-04T21:32:06.387Z,9.16
2022-10-04T21:34:56.209Z,9.43
2022-10-04T21:37:20.166Z,9.22
2022-10-04T21:39:46.783Z,9.39
2022-10-04T21:42:13.381Z,9.28
2022-10-04T21:44:39.971Z,9.43
2022-10-04T21:47:06.693Z,9.49
2022-10-04T21:49:33.407Z,9.51
2022-10-04T21:51:59.972Z,9.30
2022-10-04T21:54:26.568Z,9.47
2022-10-04T21:56:54.182Z,9.33
2022-10-04T21:59:21.165Z,9.53
2022-10-04T22:01:47.829Z,9.47
2022-10-04T22:04:14.633Z,9.11
2022-10-04T22:06:41.425Z,9.47
2022-10-04T22:09:09.161Z,9.45
2022-10-04T22:11:36.477Z,9.10
2022-10-04T22:14:03.598Z,9.34
2022-10-04T22:16:30.592Z,9.24
2022-10-04T22:18:57.174Z,9.13
2022-10-04T22:21:23.732Z,9.25
2022-10-04T22:23:50.306Z,9.18
2022-10-04T22:26:19.992Z,9.15
2022-10-04T22:28:52.226Z,8.96
2022-10-04T22:31:27.729Z,9.12
2022-10-04T22:33:55.355Z,8.93
2022-10-04T22:36:27.319Z,9.07
2022-10-04T22:39:00.802Z,8.90
2022-10-04T22:41:31.237Z,8.54
2022-10-04T22:44:02.390Z,8.75
2022-10-04T22:46:36.136Z,8.67
2022-10-04T22:49:08.555Z,8.37
2022-10-04T22:51:36.677Z,8.55
2022-10-04T22:54:09.723Z,8.24
2022-10-04T22:56:36.282Z,8.57
2022-10-04T22:59:02.939Z,8.07
2022-10-04T23:01:29.550Z,8.53
2022-10-04T23:03:57.798Z,8.40
2022-10-04T23:06:24.359Z,8.42
2022-10-04T23:08:50.975Z,8.45
2022-10-04T23:11:17.590Z,8.41
2022-10-04T23:13:44.206Z,7.97
2022-10-04T23:16:14.353Z,8.30
2022-10-04T23:18:41.585Z,8.31
2022-10-04T23:21:20.641Z,8.32
2022-10-04T23:23:48.444Z,8.24
2022-10-04T23:26:23.338Z,7.49
2022-10-04T23:28:51.579Z,7.82
2022-10-04T23:31:26.902Z,8.16
2022-10-04T23:33:56.888Z,7.65
2022-10-04T23:36:23.988Z,7.89
2022-10-04T23:38:56.852Z,7.98
2022-10-04T23:41:23.428Z,7.58
2022-10-04T23:43:49.986Z,8.11
2022-10-04T23:46:22.368Z,7.87
2022-10-04T23:48:49.483Z,8.20
2022-10-04T23:51:18.852Z,8.08
2022-10-04T23:53:48.523Z,8.17
2022-10-04T23:56:22.301Z,7.22
2022-10-04T23:58:51.260Z,8.12
